Time;durP1;ratioP1;P1;durP2;ratioP2;P2;SDS_P1;SDS_P2;PMS_P1;PMS_P2;Temp;Humidity;BMP_temperature;BMP_pressure;BME280_temperature;BME280_humidity;BME280_pressure;Samples;Min_cycle;Max_cycle;Signal;HPM_P1;HPM_P2
2023/03/23 00:01:05;;;;;;;14.20;11.70;;;11.60;99.90;;;;;;6185884;23;20017;-84
2023/03/23 00:03:31;;;;;;;14.90;12.15;;;11.60;99.90;;;;;;6211769;23;20017;-84
2023/03/23 00:06:05;;;;;;;13.48;11.73;;;11.60;99.90;;;;;;6213181;23;20031;-84
2023/03/23 00:08:37;;;;;;;13.98;11.63;;;11.60;99.90;;;;;;6184533;23;20017;-84
2023/03/23 00:11:04;;;;;;;14.10;11.35;;;11.70;99.90;;;;;;6212132;23;20013;-84
2023/03/23 00:13:30;;;;;;;12.57;10.93;;;11.70;99.90;;;;;;6182901;23;20055;-84
2023/03/23 00:15:56;;;;;;;14.52;11.00;;;11.70;99.90;;;;;;6186186;23;20017;-85
2023/03/23 00:18:23;;;;;;;13.57;11.30;;;11.80;99.90;;;;;;6185124;23;20021;-84
2023/03/23 00:20:54;;;;;;;14.50;11.30;;;11.80;99.90;;;;;;6212270;23;20008;-84
2023/03/23 00:23:24;;;;;;;16.52;12.02;;;11.80;99.90;;;;;;6184864;23;20016;-84
2023/03/23 00:25:58;;;;;;;14.85;11.60;;;11.70;99.90;;;;;;6212247;23;20013;-84
2023/03/23 00:28:26;;;;;;;12.85;10.40;;;11.70;99.90;;;;;;6184130;23;20017;-83
2023/03/23 00:31:05;;;;;;;13.38;10.73;;;11.70;99.90;;;;;;6185184;23;20017;-84
2023/03/23 00:33:40;;;;;;;14.20;10.15;;;11.70;99.90;;;;;;6160721;23;20070;-84
2023/03/23 00:36:10;;;;;;;14.05;9.65;;;11.70;99.90;;;;;;6184608;23;20380;-84
2023/03/23 00:38:38;;;;;;;13.80;9.68;;;11.80;99.90;;;;;;6184423;23;20021;-83
2023/03/23 00:41:04;;;;;;;13.80;9.75;;;11.80;99.90;;;;;;6211768;23;20024;-83
2023/03/23 00:46:09;;;;;;;12.15;8.93;;;11.80;99.90;;;;;;6178777;23;20033;-83
2023/03/23 00:48:44;;;;;;;12.27;8.88;;;11.80;99.90;;;;;;6181535;23;20017;-82
2023/03/23 00:51:11;;;;;;;13.55;9.38;;;11.80;99.90;;;;;;6182240;23;20067;-83
2023/03/23 00:53:38;;;;;;;13.23;9.40;;;11.70;99.90;;;;;;6155963;23;20075;-83
2023/03/23 00:56:04;;;;;;;13.07;8.95;;;11.80;99.90;;;;;;6182086;23;20017;-84
2023/03/23 00:58:30;;;;;;;11.77;8.55;;;11.70;99.90;;;;;;6180730;23;20024;-83
2023/03/23 01:00:56;;;;;;;11.50;8.20;;;11.80;99.90;;;;;;6155544;23;20422;-83
2023/03/23 01:03:25;;;;;;;10.20;7.82;;;11.80;99.90;;;;;;6181300;23;20013;-83
2023/03/23 01:05:51;;;;;;;12.07;8.00;;;11.80;99.90;;;;;;6182002;23;20378;-83
2023/03/23 01:08:18;;;;;;;12.50;7.05;;;11.80;99.90;;;;;;6181637;23;20103;-83
2023/03/23 01:10:45;;;;;;;10.68;6.60;;;11.80;99.90;;;;;;6154735;23;20017;-82
2023/03/23 01:13:11;;;;;;;11.80;6.78;;;11.80;99.90;;;;;;6180412;23;20118;-83
2023/03/23 01:15:37;;;;;;;9.93;6.75;;;11.80;99.90;;;;;;6182436;23;20009;-83
2023/03/23 01:18:03;;;;;;;10.57;6.20;;;11.70;99.90;;;;;;6182300;23;20094;-83
2023/03/23 01:20:31;;;;;;;9.10;6.30;;;11.80;99.90;;;;;;6154934;23;20013;-83
2023/03/23 01:23:00;;;;;;;8.93;5.28;;;11.70;99.90;;;;;;6182306;23;20017;-84
2023/03/23 01:25:36;;;;;;;10.68;5.72;;;11.80;99.90;;;;;;6180694;23;20009;-83
2023/03/23 01:28:02;;;;;;;9.10;5.50;;;11.80;99.90;;;;;;6181903;23;20021;-84
2023/03/23 01:30:27;;;;;;;9.68;5.30;;;11.80;99.90;;;;;;6181949;23;20028;-83
2023/03/23 01:32:54;;;;;;;9.82;5.15;;;11.80;99.90;;;;;;6181854;23;20012;-83
2023/03/23 01:35:21;;;;;;;9.70;5.68;;;11.80;99.90;;;;;;6180200;23;20019;-83
2023/03/23 01:37:47;;;;;;;9.95;5.38;;;11.70;99.90;;;;;;6181807;23;20049;-83
2023/03/23 01:40:14;;;;;;;9.27;5.32;;;11.70;99.90;;;;;;6180961;23;20017;-83
2023/03/23 01:42:40;;;;;;;8.40;4.93;;;11.70;99.90;;;;;;6181154;23;20005;-83
2023/03/23 01:45:23;;;;;;;9.25;5.10;;;11.70;99.90;;;;;;6181174;23;20055;-83
2023/03/23 01:48:06;;;;;;;9.77;5.30;;;11.70;99.90;;;;;;6181520;23;20028;-83
2023/03/23 01:50:44;;;;;;;8.55;4.97;;;11.80;99.90;;;;;;6181600;23;20040;-83
2023/03/23 01:53:11;;;;;;;8.60;4.93;;;11.80;99.90;;;;;;6181308;23;20005;-83
2023/03/23 01:55:40;;;;;;;9.20;5.40;;;11.70;99.90;;;;;;6182160;23;20015;-84
2023/03/23 01:58:07;;;;;;;8.82;5.15;;;11.80;99.90;;;;;;6181080;23;20386;-84
2023/03/23 02:00:34;;;;;;;8.80;5.03;;;11.80;99.90;;;;;;6181752;23;20334;-84
2023/03/23 02:03:00;;;;;;;9.70;5.53;;;11.80;99.90;;;;;;6182093;23;20009;-82
2023/03/23 02:05:37;;;;;;;10.57;5.20;;;11.80;99.90;;;;;;6152989;23;20114;-83
2023/03/23 02:08:05;;;;;;;9.75;5.70;;;11.80;99.90;;;;;;6181410;23;20020;-83
2023/03/23 02:10:32;;;;;;;9.52;5.28;;;11.80;99.90;;;;;;6181099;23;20017;-83
2023/03/23 02:13:00;;;;;;;9.38;5.22;;;11.70;99.90;;;;;;6154890;23;20064;-83
2023/03/23 02:15:33;;;;;;;9.60;4.88;;;11.80;99.90;;;;;;6180931;23;20017;-83
2023/03/23 02:18:20;;;;;;;8.60;5.20;;;11.80;99.90;;;;;;6181559;23;20017;-83
2023/03/23 02:21:09;;;;;;;8.68;4.93;;;11.70;99.90;;;;;;6181812;23;20072;-83
2023/03/23 02:23:56;;;;;;;9.00;5.00;;;11.80;99.90;;;;;;6181625;23;20013;-83
2023/03/23 02:26:46;;;;;;;9.45;4.78;;;11.80;99.90;;;;;;6153576;23;20012;-84
2023/03/23 02:29:32;;;;;;;8.20;4.80;;;11.70;99.90;;;;;;6181410;23;20391;-83
2023/03/23 02:32:30;;;;;;;9.75;4.88;;;11.70;99.90;;;;;;6181547;23;20438;-83
2023/03/23 02:35:08;;;;;;;8.52;4.70;;;11.70;99.90;;;;;;6180627;23;20013;-83
2023/03/23 02:37:41;;;;;;;8.57;4.60;;;11.70;99.90;;;;;;6180264;23;20013;-84
2023/03/23 02:40:14;;;;;;;9.02;5.20;;;11.80;99.90;;;;;;6179820;23;20040;-83
2023/03/23 02:42:45;;;;;;;9.63;4.80;;;11.80;99.90;;;;;;6181719;23;20010;-84
2023/03/23 02:45:13;;;;;;;10.07;5.07;;;11.80;99.90;;;;;;6180415;23;20076;-83
2023/03/23 02:47:41;;;;;;;8.55;4.20;;;11.70;99.90;;;;;;6181183;23;20088;-83
2023/03/23 02:50:11;;;;;;;10.68;4.40;;;11.70;99.90;;;;;;6180316;23;20009;-83
2023/03/23 02:52:39;;;;;;;8.87;4.90;;;11.70;99.90;;;;;;6155215;23;20047;-83
2023/03/23 02:55:07;;;;;;;7.72;4.50;;;11.70;99.90;;;;;;6181220;23;20378;-83
2023/03/23 02:57:33;;;;;;;8.43;5.05;;;11.60;99.90;;;;;;6180871;23;20087;-83
2023/03/23 02:59:59;;;;;;;8.60;4.93;;;11.70;99.90;;;;;;6182160;23;20016;-84
2023/03/23 03:02:36;;;;;;;8.43;4.80;;;11.70;99.90;;;;;;6179179;23;20005;-83
2023/03/23 03:05:11;;;;;;;8.63;5.47;;;11.70;99.90;;;;;;6181263;23;20048;-83
2023/03/23 03:07:37;;;;;;;9.10;5.28;;;11.70;99.90;;;;;;6181442;23;20318;-84
2023/03/23 03:10:32;;;;;;;8.52;5.10;;;11.70;99.90;;;;;;6180951;23;20024;-83
2023/03/23 03:13:24;;;;;;;9.52;5.25;;;11.70;99.90;;;;;;6146285;23;20017;-83
2023/03/23 03:16:08;;;;;;;10.05;5.60;;;11.60;99.90;;;;;;6154956;23;20013;-83
2023/03/23 03:18:45;;;;;;;9.45;5.20;;;11.60;99.90;;;;;;6180662;23;20513;-83
2023/03/23 03:21:14;;;;;;;8.63;5.38;;;11.60;99.90;;;;;;6130315;23;20459;-82
2023/03/23 03:23:42;;;;;;;9.40;5.57;;;11.60;99.90;;;;;;6181330;23;20013;-83
2023/03/23 03:26:17;;;;;;;8.35;5.13;;;11.60;99.90;;;;;;6182946;23;20020;-83
2023/03/23 03:28:48;;;;;;;9.38;5.47;;;11.70;99.90;;;;;;6181268;23;20009;-83
2023/03/23 03:31:16;;;;;;;9.15;5.30;;;11.70;99.90;;;;;;6182768;23;20063;-83
2023/03/23 03:33:43;;;;;;;9.35;5.38;;;11.70;99.90;;;;;;6182240;23;20013;-83
2023/03/23 03:36:15;;;;;;;9.13;5.25;;;11.70;99.90;;;;;;6182916;23;20013;-83
2023/03/23 03:38:46;;;;;;;9.25;5.30;;;11.70;99.90;;;;;;6181617;23;20020;-84
2023/03/23 03:41:12;;;;;;;9.32;5.53;;;11.70;99.90;;;;;;6182526;23;20012;-83
2023/03/23 03:43:38;;;;;;;8.55;5.68;;;11.70;99.90;;;;;;6183232;23;20036;-83
2023/03/23 03:46:04;;;;;;;10.55;5.80;;;11.70;99.90;;;;;;6181496;23;20036;-83
2023/03/23 03:48:33;;;;;;;8.80;5.47;;;11.70;99.90;;;;;;6182010;23;20017;-83
2023/03/23 03:51:00;;;;;;;8.68;5.40;;;11.70;99.90;;;;;;6156398;23;20093;-83
2023/03/23 03:53:26;;;;;;;10.20;6.40;;;11.70;99.90;;;;;;6181212;23;20017;-83
2023/03/23 03:55:55;;;;;;;9.07;5.82;;;11.70;99.90;;;;;;6183636;23;20091;-84
2023/03/23 03:58:21;;;;;;;10.05;5.97;;;11.80;99.90;;;;;;6182178;23;20074;-84
2023/03/23 04:00:50;;;;;;;9.50;5.82;;;11.80;99.90;;;;;;6183337;23;20009;-82
2023/03/23 04:03:16;;;;;;;9.50;5.82;;;11.80;99.90;;;;;;6181919;23;20005;-83
2023/03/23 04:05:44;;;;;;;9.93;5.85;;;11.80;99.90;;;;;;6183208;23;20009;-84
2023/03/23 04:08:11;;;;;;;10.68;5.85;;;11.80;99.90;;;;;;6156205;23;20031;-83
2023/03/23 04:10:37;;;;;;;8.98;6.00;;;11.80;99.90;;;;;;6155530;23;20103;-83
2023/03/23 04:13:04;;;;;;;9.93;6.07;;;11.80;99.90;;;;;;6156277;23;20330;-83
2023/03/23 04:15:30;;;;;;;9.55;6.00;;;11.90;99.90;;;;;;6182042;23;20338;-83
2023/03/23 04:17:56;;;;;;;8.98;6.30;;;11.90;99.90;;;;;;6182864;23;20013;-83
2023/03/23 04:20:23;;;;;;;10.60;6.45;;;11.90;99.90;;;;;;6182814;23;20494;-83
2023/03/23 04:22:49;;;;;;;10.23;6.30;;;11.90;99.90;;;;;;6182030;23;20009;-83
2023/03/23 04:25:20;;;;;;;9.73;6.65;;;11.90;99.90;;;;;;6181773;23;20304;-84
2023/03/23 04:27:52;;;;;;;9.40;6.68;;;11.90;99.90;;;;;;6155772;23;20019;-83
2023/03/23 04:30:21;;;;;;;11.25;6.93;;;11.90;99.90;;;;;;6180714;23;20016;-83
2023/03/23 04:32:50;;;;;;;9.48;6.25;;;12.00;99.90;;;;;;6182127;23;20017;-83
2023/03/23 04:35:17;;;;;;;9.10;6.50;;;11.90;99.90;;;;;;6155082;23;20009;-84
2023/03/23 04:37:43;;;;;;;10.63;6.25;;;12.00;99.90;;;;;;6182037;23;20076;-83
2023/03/23 04:40:14;;;;;;;10.73;6.93;;;12.00;99.90;;;;;;6182846;23;20122;-84
2023/03/23 04:42:45;;;;;;;10.05;6.00;;;12.00;99.90;;;;;;6182473;23;20307;-84
2023/03/23 04:45:12;;;;;;;9.07;6.25;;;11.90;99.90;;;;;;6181305;23;20405;-83
2023/03/23 04:47:41;;;;;;;10.15;6.30;;;11.90;99.90;;;;;;6182327;23;20021;-84
2023/03/23 04:50:11;;;;;;;9.18;6.40;;;11.90;99.90;;;;;;6182075;23;20337;-83
2023/03/23 04:52:44;;;;;;;9.25;6.45;;;11.90;99.90;;;;;;6182213;23;20036;-83
2023/03/23 04:55:12;;;;;;;10.43;6.50;;;11.90;99.90;;;;;;6182354;23;20009;-83
2023/03/23 04:57:38;;;;;;;10.10;6.50;;;11.90;99.90;;;;;;6182903;23;20019;-83
2023/03/23 05:00:08;;;;;;;10.93;6.43;;;11.90;99.90;;;;;;6182873;23;20086;-84
2023/03/23 05:02:39;;;;;;;11.73;6.40;;;11.90;99.90;;;;;;6181864;23;20019;-83
2023/03/23 05:05:08;;;;;;;13.82;6.78;;;11.90;99.90;;;;;;6182198;23;20357;-84
2023/03/23 05:07:34;;;;;;;12.80;7.28;;;12.00;99.90;;;;;;6182630;23;20088;-84
2023/03/23 05:09:59;;;;;;;11.32;6.68;;;11.80;99.90;;;;;;6182814;23;20059;-84
2023/03/23 05:12:26;;;;;;;9.82;5.65;;;11.80;99.90;;;;;;6181368;23;20017;-84
2023/03/23 05:14:52;;;;;;;9.70;5.57;;;11.60;99.90;;;;;;6156103;23;20013;-84
2023/03/23 05:17:18;;;;;;;9.40;4.63;;;11.50;99.90;;;;;;6181342;23;20009;-84
2023/03/23 05:19:47;;;;;;;9.55;4.30;;;11.50;99.90;;;;;;6182261;23;20016;-84
2023/03/23 05:22:14;;;;;;;10.00;3.88;;;11.50;99.90;;;;;;6181195;23;20009;-84
2023/03/23 05:24:40;;;;;;;9.52;4.32;;;11.30;99.90;;;;;;6182410;23;20017;-84
2023/03/23 05:27:07;;;;;;;11.15;4.05;;;11.30;99.90;;;;;;6131419;23;20513;-84
2023/03/23 05:29:35;;;;;;;10.13;4.05;;;11.30;99.90;;;;;;6155753;23;20020;-84
2023/03/23 05:32:05;;;;;;;9.85;3.95;;;11.20;99.90;;;;;;6182356;23;20071;-84
2023/03/23 05:34:34;;;;;;;10.43;3.65;;;11.20;99.90;;;;;;6181050;23;20017;-84
2023/03/23 05:37:01;;;;;;;11.82;3.53;;;11.20;99.90;;;;;;6181473;23;20428;-84
2023/03/23 05:39:32;;;;;;;13.07;3.60;;;11.20;99.90;;;;;;6180008;23;20115;-84
2023/03/23 05:41:58;;;;;;;12.57;3.80;;;11.30;99.90;;;;;;6181377;23;20083;-85
2023/03/23 05:44:24;;;;;;;11.40;3.63;;;11.30;99.90;;;;;;6179715;23;20048;-84
2023/03/23 05:46:50;;;;;;;13.15;4.00;;;11.30;99.90;;;;;;6181295;23;20075;-84
2023/03/23 05:49:16;;;;;;;13.65;3.35;;;11.40;99.90;;;;;;6154755;23;20005;-83
2023/03/23 05:51:49;;;;;;;13.38;3.95;;;11.40;99.90;;;;;;6181142;23;20059;-83
2023/03/23 05:54:16;;;;;;;12.57;4.30;;;11.30;99.90;;;;;;6181309;23;20428;-82
2023/03/23 05:56:42;;;;;;;11.52;4.20;;;11.30;99.90;;;;;;6182598;23;20036;-84
2023/03/23 05:59:09;;;;;;;10.73;3.70;;;11.30;99.90;;;;;;6181187;23;20009;-84
2023/03/23 06:01:35;;;;;;;9.32;4.00;;;11.30;99.90;;;;;;6180190;23;20087;-82
2023/03/23 06:04:01;;;;;;;10.30;2.88;;;11.20;99.90;;;;;;6181406;23;20383;-84
2023/03/23 06:06:29;;;;;;;10.35;4.00;;;11.20;99.90;;;;;;6181622;23;20009;-84
2023/03/23 06:08:55;;;;;;;9.63;3.40;;;11.10;99.90;;;;;;6180541;23;20059;-84
2023/03/23 06:11:21;;;;;;;9.82;3.15;;;11.10;99.90;;;;;;6180774;23;20063;-86
2023/03/23 06:13:47;;;;;;;10.95;3.63;;;11.20;99.90;;;;;;6181446;23;20013;-83
2023/03/23 06:16:13;;;;;;;10.85;3.17;;;11.10;99.90;;;;;;6179814;23;20013;-84
2023/03/23 06:18:40;;;;;;;10.13;2.92;;;11.20;99.90;;;;;;6154658;23;20016;-85
2023/03/23 06:21:07;;;;;;;9.05;3.00;;;11.10;99.90;;;;;;6179925;23;20330;-85
2023/03/23 06:23:34;;;;;;;10.52;3.40;;;11.30;99.90;;;;;;6181231;23;20009;-85
2023/03/23 06:26:05;;;;;;;10.63;2.80;;;11.20;99.90;;;;;;6182360;23;20303;-83
2023/03/23 06:28:31;;;;;;;8.25;3.10;;;11.20;99.90;;;;;;6182224;23;20096;-83
2023/03/23 06:31:06;;;;;;;10.15;3.25;;;11.10;99.90;;;;;;6182609;23;20017;-84
2023/03/23 06:33:33;;;;;;;11.73;3.80;;;11.10;99.90;;;;;;6181143;23;20012;-83
2023/03/23 06:35:59;;;;;;;12.63;3.72;;;11.10;99.90;;;;;;6181048;23;20013;-84
2023/03/23 06:38:26;;;;;;;9.25;3.00;;;11.10;99.90;;;;;;6179318;23;20020;-82
2023/03/23 06:40:55;;;;;;;10.98;3.95;;;11.10;99.90;;;;;;6181486;23;20013;-82
2023/03/23 06:43:21;;;;;;;11.25;3.65;;;11.10;99.90;;;;;;6180553;23;20330;-83
2023/03/23 06:45:47;;;;;;;11.65;3.58;;;11.00;99.90;;;;;;6181904;23;20024;-84
2023/03/23 06:48:13;;;;;;;10.20;3.63;;;11.10;99.90;;;;;;6181016;23;20005;-86
2023/03/23 06:50:39;;;;;;;10.70;3.63;;;11.20;99.90;;;;;;6154348;23;20715;-84
2023/03/23 06:53:04;;;;;;;12.38;3.88;;;11.10;99.90;;;;;;6179621;23;20074;-84
2023/03/23 06:55:30;;;;;;;14.48;3.95;;;11.20;99.90;;;;;;6181938;23;20009;-86
2023/03/23 06:57:56;;;;;;;11.43;4.00;;;11.20;99.90;;;;;;6156486;23;20145;-86
2023/03/23 07:00:22;;;;;;;13.18;4.35;;;11.20;99.90;;;;;;6181943;23;20009;-82
2023/03/23 07:02:47;;;;;;;17.55;4.57;;;11.30;99.90;;;;;;6181124;23;20091;-83
2023/03/23 07:05:14;;;;;;;12.23;3.88;;;11.40;99.90;;;;;;6181784;23;20017;-87
2023/03/23 07:07:40;;;;;;;14.68;4.45;;;11.40;99.90;;;;;;6154346;23;20092;-84
2023/03/23 07:10:08;;;;;;;17.95;5.82;;;11.50;99.90;;;;;;6182242;23;20013;-84
2023/03/23 07:12:35;;;;;;;17.92;5.03;;;11.40;99.90;;;;;;6179689;23;20048;-83
2023/03/23 07:15:04;;;;;;;16.40;4.90;;;11.50;99.90;;;;;;6181310;23;20005;-82
2023/03/23 07:17:30;;;;;;;15.05;4.63;;;11.50;99.90;;;;;;6177623;23;20100;-84
2023/03/23 07:19:56;;;;;;;15.93;4.72;;;11.50;99.90;;;;;;6181081;23;20056;-83
2023/03/23 07:22:21;;;;;;;19.38;6.10;;;11.60;99.90;;;;;;6178190;23;20028;-84
2023/03/23 07:24:47;;;;;;;15.40;4.75;;;11.50;99.90;;;;;;6182118;23;20135;-84
2023/03/23 07:27:13;;;;;;;14.77;4.78;;;11.50;99.90;;;;;;6182446;23;20443;-84
2023/03/23 07:29:39;;;;;;;15.52;4.95;;;11.60;99.90;;;;;;6182676;23;20024;-84
2023/03/23 07:32:06;;;;;;;15.75;4.50;;;11.60;99.90;;;;;;6182335;23;20113;-84
2023/03/23 07:34:32;;;;;;;15.32;5.03;;;11.70;99.90;;;;;;6182057;23;20020;-84
2023/03/23 07:36:58;;;;;;;13.65;4.93;;;11.80;99.90;;;;;;6154407;23;20108;-85
2023/03/23 07:39:25;;;;;;;15.18;4.50;;;11.90;99.90;;;;;;6180118;23;20132;-83
2023/03/23 07:41:51;;;;;;;12.05;4.50;;;12.00;99.90;;;;;;6181776;23;20089;-83
2023/03/23 07:44:17;;;;;;;14.68;4.32;;;12.10;99.90;;;;;;6178673;23;20048;-85
2023/03/23 07:46:43;;;;;;;14.00;4.43;;;12.10;99.90;;;;;;6182167;23;20024;-83
2023/03/23 07:49:09;;;;;;;13.80;4.55;;;12.20;99.90;;;;;;6154070;23;20013;-84
2023/03/23 07:51:38;;;;;;;13.98;4.40;;;12.20;99.90;;;;;;6153780;23;20009;-84
2023/03/23 07:54:04;;;;;;;13.43;4.07;;;12.20;99.90;;;;;;6181777;23;20009;-85
2023/03/23 07:56:30;;;;;;;12.45;4.70;;;12.20;99.90;;;;;;6181186;23;20031;-84
2023/03/23 07:58:56;;;;;;;13.65;4.13;;;12.30;99.90;;;;;;6181878;23;20024;-84
2023/03/23 08:01:23;;;;;;;16.65;4.32;;;12.30;99.90;;;;;;6180612;23;20009;-84
2023/03/23 08:03:50;;;;;;;16.30;4.82;;;12.30;99.90;;;;;;6180007;23;20036;-84
2023/03/23 08:06:15;;;;;;;14.15;4.32;;;12.30;99.90;;;;;;6155117;23;20016;-81
2023/03/23 08:08:41;;;;;;;14.18;4.68;;;12.30;99.90;;;;;;6163253;23;20013;-85
2023/03/23 08:11:07;;;;;;;18.45;4.47;;;12.30;99.90;;;;;;6131984;23;20013;-84
2023/03/23 08:13:34;;;;;;;18.13;4.88;;;12.40;99.90;;;;;;6132239;23;20092;-84
2023/03/23 08:16:03;;;;;;;17.05;4.88;;;12.30;99.90;;;;;;6134767;23;20087;-83
2023/03/23 08:18:29;;;;;;;15.73;4.85;;;12.40;99.90;;;;;;6107995;23;20021;-84
2023/03/23 08:20:55;;;;;;;15.75;4.45;;;12.40;99.90;;;;;;6135545;23;20017;-83
2023/03/23 08:23:21;;;;;;;16.23;5.03;;;12.40;99.90;;;;;;6133185;23;20013;-85
2023/03/23 08:25:48;;;;;;;15.70;5.60;;;12.40;99.90;;;;;;6133528;23;20697;-82
2023/03/23 08:28:13;;;;;;;14.80;4.90;;;12.50;99.90;;;;;;6106929;23;20017;-83
2023/03/23 08:30:40;;;;;;;14.43;4.55;;;12.50;99.90;;;;;;6107570;23;20016;-84
2023/03/23 08:33:06;;;;;;;18.90;4.97;;;12.50;99.90;;;;;;6133064;23;20040;-86
2023/03/23 08:35:32;;;;;;;14.50;4.40;;;12.50;99.90;;;;;;6131563;23;20096;-89
2023/03/23 08:37:58;;;;;;;14.18;4.53;;;12.60;99.90;;;;;;6106174;23;20484;-85
2023/03/23 08:40:26;;;;;;;17.38;5.35;;;12.70;99.90;;;;;;6130852;23;20016;-84
2023/03/23 08:42:52;;;;;;;15.50;5.22;;;12.70;99.90;;;;;;6132919;23;20729;-84
2023/03/23 08:45:21;;;;;;;16.13;5.40;;;12.60;99.90;;;;;;6120684;23;20353;-83
2023/03/23 08:47:51;;;;;;;17.48;5.20;;;12.60;99.90;;;;;;6133197;23;20008;-86
2023/03/23 08:50:22;;;;;;;19.52;6.05;;;12.70;99.90;;;;;;6131867;23;20023;-85
2023/03/23 08:52:49;;;;;;;;;;;12.60;99.90;;;;;;6134795;23;20396;-84
2023/03/23 08:55:15;;;;;;;17.08;5.70;;;12.60;99.90;;;;;;6131484;23;20269;-86
2023/03/23 08:57:42;;;;;;;21.45;5.90;;;12.70;99.90;;;;;;6131832;23;20394;-86
2023/03/23 09:00:17;;;;;;;15.77;5.70;;;12.80;99.90;;;;;;6132858;23;20051;-86
2023/03/23 09:02:52;;;;;;;17.17;5.43;;;12.90;99.90;;;;;;6131257;23;20005;-85
2023/03/23 09:05:21;;;;;;;14.77;4.93;;;12.90;99.90;;;;;;6129963;23;20477;-84
2023/03/23 09:07:50;;;;;;;19.50;5.72;;;12.90;99.90;;;;;;6130662;23;20053;-84
2023/03/23 09:10:17;;;;;;;15.50;5.25;;;12.80;99.90;;;;;;6129704;23;20045;-87
2023/03/23 09:12:44;;;;;;;19.60;5.25;;;13.00;99.90;;;;;;6134662;23;20020;-85
2023/03/23 09:15:12;;;;;;;17.13;6.00;;;13.00;99.90;;;;;;6134632;23;20009;-85
2023/03/23 09:17:47;;;;;;;16.08;4.75;;;13.00;99.90;;;;;;6132100;23;20346;-85
2023/03/23 09:20:15;;;;;;;17.05;5.50;;;12.90;99.90;;;;;;6133155;23;20469;-85
2023/03/23 09:22:44;;;;;;;15.85;5.78;;;12.80;99.90;;;;;;6134973;23;20386;-85
2023/03/23 09:25:12;;;;;;;18.33;6.18;;;12.90;99.90;;;;;;6134242;23;20020;-85
2023/03/23 09:27:39;;;;;;;17.38;5.97;;;13.00;99.90;;;;;;6133914;23;20085;-85
2023/03/23 09:30:08;;;;;;;16.23;5.38;;;13.10;99.90;;;;;;6134316;23;20045;-85
2023/03/23 09:32:34;;;;;;;17.23;6.35;;;13.10;99.90;;;;;;6134640;23;20045;-85
2023/03/23 09:35:01;;;;;;;18.02;4.97;;;13.10;99.90;;;;;;6133362;23;20280;-84
2023/03/23 09:37:27;;;;;;;18.00;5.32;;;13.00;99.90;;;;;;6132006;23;20023;-85
2023/03/23 09:39:53;;;;;;;15.98;4.60;;;12.90;99.90;;;;;;6132874;23;20359;-85
2023/03/23 09:42:48;;;;;;;14.15;4.82;;;12.90;99.90;;;;;;6132270;23;20095;-85
2023/03/23 09:45:28;;;;;;;16.63;5.22;;;12.80;99.90;;;;;;6131623;23;20086;-83
2023/03/23 09:48:20;;;;;;;16.80;4.55;;;12.70;99.90;;;;;;6108994;23;20283;-84
2023/03/23 09:50:49;;;;;;;17.95;5.30;;;12.70;99.90;;;;;;6082959;23;20346;-84
2023/03/23 09:53:27;;;;;;;16.67;5.32;;;12.70;99.90;;;;;;6133315;23;20579;-85
2023/03/23 09:55:54;;;;;;;18.13;5.13;;;12.70;99.90;;;;;;6134913;23;20005;-86
2023/03/23 09:58:39;;;;;;;14.90;4.82;;;12.70;99.90;;;;;;6134087;23;20021;-85
2023/03/23 10:01:13;;;;;;;15.13;4.95;;;12.70;99.90;;;;;;6134414;23;20013;-84
2023/03/23 10:03:42;;;;;;;17.85;4.70;;;12.60;99.90;;;;;;6133998;23;20568;-85
2023/03/23 10:06:12;;;;;;;16.77;5.00;;;12.50;99.90;;;;;;6133278;23;20017;-83
2023/03/23 10:08:44;;;;;;;15.38;5.60;;;12.50;99.90;;;;;;6133939;23;20036;-85
2023/03/23 10:11:14;;;;;;;14.43;5.00;;;12.60;99.90;;;;;;6133357;23;20439;-83
2023/03/23 10:14:14;;;;;;;16.50;5.22;;;12.50;99.90;;;;;;6082839;23;20088;-85
2023/03/23 10:17:00;;;;;;;15.60;4.43;;;12.50;99.90;;;;;;6134103;23;20095;-86
2023/03/23 10:19:41;;;;;;;16.80;4.88;;;12.40;99.90;;;;;;6133113;23;20389;-85
2023/03/23 10:22:12;;;;;;;13.52;4.55;;;12.40;99.90;;;;;;6134040;23;20139;-84
2023/03/23 10:24:49;;;;;;;;;;;12.30;99.90;;;;;;6133716;23;20013;-84
2023/03/23 10:27:44;;;;;;;13.30;4.15;;;12.20;99.90;;;;;;6133870;23;20253;-86
2023/03/23 10:30:27;;;;;;;15.45;4.10;;;12.20;99.90;;;;;;6133968;23;20020;-85
2023/03/23 10:33:05;;;;;;;15.05;4.68;;;12.30;99.90;;;;;;6109435;23;20017;-85
2023/03/23 10:35:55;;;;;;;15.77;4.47;;;12.30;99.90;;;;;;6106505;23;20082;-85
2023/03/23 10:38:29;;;;;;;13.63;4.43;;;12.40;99.90;;;;;;6133974;23;20476;-85
2023/03/23 10:41:18;;;;;;;14.57;4.22;;;12.50;99.90;;;;;;6137360;23;20516;-85
2023/03/23 10:43:45;;;;;;;14.85;4.25;;;12.70;99.90;;;;;;6135680;23;20504;-87
2023/03/23 10:46:33;;;;;;;13.80;3.90;;;13.00;99.90;;;;;;6134348;23;20048;-84
2023/03/23 10:49:04;;;;;;;11.15;4.00;;;13.20;99.90;;;;;;6134955;23;20392;-85
2023/03/23 10:51:59;;;;;;;13.63;4.03;;;13.40;99.90;;;;;;6134485;23;20048;-85
2023/03/23 10:54:36;;;;;;;11.88;3.92;;;13.60;99.90;;;;;;6109126;23;20021;-84
2023/03/23 10:57:14;;;;;;;10.90;3.50;;;13.90;99.90;;;;;;6135513;23;20357;-84
2023/03/23 10:59:41;;;;;;;11.23;3.83;;;14.10;99.90;;;;;;6135364;23;20016;-85
2023/03/23 11:02:16;;;;;;;11.32;3.50;;;14.40;99.90;;;;;;6136254;23;20751;-84
2023/03/23 11:05:03;;;;;;;12.27;3.75;;;14.50;99.90;;;;;;6135630;23;20453;-83
2023/03/23 11:07:32;;;;;;;9.73;3.15;;;14.60;99.90;;;;;;6133070;23;20021;-87
2023/03/23 11:10:16;;;;;;;14.15;3.60;;;14.70;99.90;;;;;;6135779;23;20009;-85
2023/03/23 11:12:45;;;;;;;10.43;3.15;;;14.70;99.90;;;;;;6110493;23;20021;-85
2023/03/23 11:15:32;;;;;;;12.52;3.45;;;14.70;99.90;;;;;;6109440;23;20045;-85
2023/03/23 11:18:01;;;;;;;12.93;3.40;;;14.50;99.90;;;;;;6111366;23;20613;-86
2023/03/23 11:20:29;;;;;;;11.93;3.30;;;14.40;99.90;;;;;;6113654;23;20944;-87
2023/03/23 11:22:55;;;;;;;10.60;3.40;;;14.40;99.90;;;;;;6111102;23;20028;-87
2023/03/23 11:25:22;;;;;;;12.90;3.55;;;14.40;99.90;;;;;;6108210;23;20021;-87
2023/03/23 11:27:49;;;;;;;9.93;3.42;;;14.30;99.90;;;;;;6109692;23;20323;-88
2023/03/23 11:30:24;;;;;;;11.68;3.70;;;14.10;99.90;;;;;;6134712;23;20084;-82
2023/03/23 11:32:52;;;;;;;13.13;3.80;;;14.10;99.90;;;;;;6133138;23;20017;-86
2023/03/23 11:35:22;;;;;;;12.27;3.25;;;14.10;99.90;;;;;;6132460;23;20444;-82
2023/03/23 11:37:54;;;;;;;10.40;3.67;;;14.30;99.90;;;;;;6132662;23;20338;-84
2023/03/23 11:40:24;;;;;;;11.85;3.50;;;14.60;99.90;;;;;;6134619;23;20332;-83
2023/03/23 11:43:00;;;;;;;9.57;3.30;;;14.80;99.90;;;;;;6135452;23;20013;-84
2023/03/23 11:45:57;;;;;;;12.35;3.20;;;15.00;99.90;;;;;;6122427;23;20083;-84
2023/03/23 11:48:45;;;;;;;12.88;3.60;;;14.90;99.90;;;;;;6133436;23;20020;-83
2023/03/23 11:51:21;;;;;;;11.23;3.17;;;14.90;99.90;;;;;;6129586;23;20044;-85
2023/03/23 11:54:04;;;;;;;11.20;3.80;;;15.10;99.90;;;;;;6133825;23;20013;-83
2023/03/23 11:56:37;;;;;;;9.68;3.08;;;15.10;99.90;;;;;;6133184;23;20017;-82
2023/03/23 11:59:12;;;;;;;10.50;3.10;;;15.00;99.90;;;;;;6135995;23;20009;-83
2023/03/23 12:01:52;;;;;;;11.18;3.20;;;14.90;99.90;;;;;;6131979;23;20130;-83
2023/03/23 12:04:38;;;;;;;11.45;3.22;;;14.70;99.90;;;;;;6181934;23;20013;-85
2023/03/23 12:07:32;;;;;;;11.98;2.70;;;14.60;99.90;;;;;;6182131;23;20013;-84
2023/03/23 12:10:35;;;;;;;10.75;3.15;;;14.50;99.90;;;;;;6179683;23;20013;-84
2023/03/23 12:13:04;;;;;;;12.00;3.15;;;14.40;99.90;;;;;;6179460;23;20017;-83
2023/03/23 12:16:05;;;;;;;11.50;3.00;;;14.20;99.90;;;;;;6181775;23;20044;-84
2023/03/23 12:18:49;;;;;;;;;;;14.20;99.90;;;;;;6119112;23;20114;-84
2023/03/23 12:21:52;;;;;;;12.77;3.33;;;14.10;99.90;;;;;;6093882;23;19917;-84
2023/03/23 12:25:00;;;;;;;11.68;3.13;;;14.10;99.90;;;;;;6059209;23;20452;-84
2023/03/23 12:27:29;;;;;;;10.80;3.28;;;14.10;99.90;;;;;;6058383;23;20062;-88
2023/03/23 12:30:31;;;;;;;14.05;3.53;;;14.00;99.90;;;;;;6062437;23;20364;-88
2023/03/23 12:33:08;;;;;;;13.75;3.15;;;14.00;99.90;;;;;;6060268;23;20115;-87
2023/03/23 12:36:00;;;;;;;13.27;3.80;;;13.90;99.90;;;;;;6059128;23;20022;-84
2023/03/23 12:38:37;;;;;;;12.50;3.33;;;13.80;99.90;;;;;;6060333;23;20038;-83
2023/03/23 12:41:24;;;;;;;11.20;3.55;;;13.70;99.90;;;;;;6061872;23;20018;-84
2023/03/23 12:43:59;;;;;;;13.57;4.00;;;13.50;99.90;;;;;;6060155;23;20018;-82
2023/03/23 12:47:03;;;;;;;12.05;3.88;;;13.50;99.90;;;;;;6061007;23;20489;-82
2023/03/23 12:49:41;;;;;;;13.68;4.30;;;13.40;99.90;;;;;;6061237;23;20061;-83
2023/03/23 12:52:39;;;;;;;13.60;3.85;;;13.60;99.90;;;;;;6069920;23;20072;-83
2023/03/23 12:55:39;;;;;;;12.13;3.70;;;13.60;99.90;;;;;;6081925;23;20015;-79
2023/03/23 12:58:15;;;;;;;14.57;4.45;;;13.70;99.90;;;;;;6066989;23;20052;-83
2023/03/23 13:01:02;;;;;;;13.45;4.45;;;13.80;99.90;;;;;;6168267;23;20017;-82
2023/03/23 13:03:44;;;;;;;11.52;3.00;;;13.90;99.90;;;;;;6180505;23;20032;-84
2023/03/23 13:06:33;;;;;;;13.50;3.50;;;14.00;99.90;;;;;;6181527;23;20012;-81